sensor_id;sensor_type;location;lat;lon;timestamp;pressure;altitude;pressure_sealevel;temperature;humidity
50384;BME280;36301;48.310;12.786;2023-08-06T03:01:34;95440.91;;;13.06;100.00
50384;BME280;36301;48.310;12.786;2023-08-06T03:04:02;95444.63;;;13.12;100.00
50384;BME280;36301;48.310;12.786;2023-08-06T03:06:29;95425.03;;;12.98;100.00
50384;BME280;36301;48.310;12.786;2023-08-06T03:08:55;95446.94;;;13.10;100.00
50384;BME280;36301;48.310;12.786;2023-08-06T03:11:22;95442.41;;;13.07;100.00
50384;BME280;36301;48.310;12.786;2023-08-06T03:13:48;95447.28;;;13.12;100.00
50384;BME280;36301;48.310;12.786;2023-08-06T03:16:15;95448.88;;;13.06;100.00
50384;BME280;36301;48.310;12.786;2023-08-06T03:18:42;95441.31;;;13.04;100.00
50384;BME280;36301;48.310;12.786;2023-08-06T03:21:08;95452.69;;;13.05;100.00
50384;BME280;36301;48.310;12.786;2023-08-06T03:23:35;95456.09;;;13.05;100.00
50384;BME280;36301;48.310;12.786;2023-08-06T03:26:02;95436.03;;;12.97;100.00
50384;BME280;36301;48.310;12.786;2023-08-06T03:28:29;95436.03;;;12.97;100.00
50384;BME280;36301;48.310;12.786;2023-08-06T03:31:03;95442.16;;;12.94;100.00
50384;BME280;36301;48.310;12.786;2023-08-06T03:33:29;95446.28;;;12.98;100.00
50384;BME280;36301;48.310;12.786;2023-08-06T03:35:56;95447.81;;;12.96;100.00
50384;BME280;36301;48.310;12.786;2023-08-06T03:38:23;95439.81;;;12.99;100.00
50384;BME280;36301;48.310;12.786;2023-08-06T03:40:49;95443.94;;;13.08;100.00
50384;BME280;36301;48.310;12.786;2023-08-06T03:43:16;95439.38;;;13.08;100.00
50384;BME280;36301;48.310;12.786;2023-08-06T03:45:42;95428.75;;;13.08;100.00
50384;BME280;36301;48.310;12.786;2023-08-06T03:48:09;95436.31;;;13.10;100.00
50384;BME280;36301;48.310;12.786;2023-08-06T03:50:36;95437.13;;;13.03;100.00
50384;BME280;36301;48.310;12.786;2023-08-06T03:53:03;95431.44;;;13.05;100.00
50384;BME280;36301;48.310;12.786;2023-08-06T03:55:29;95426.94;;;12.98;100.00
50384;BME280;36301;48.310;12.786;2023-08-06T03:57:56;95428.78;;;13.05;100.00
50384;BME280;36301;48.310;12.786;2023-08-06T04:00:22;95427.63;;;13.02;100.00
50384;BME280;36301;48.310;12.786;2023-08-06T04:02:49;95424.97;;;13.02;100.00
50384;BME280;36301;48.310;12.786;2023-08-06T04:05:16;95434.06;;;13.08;100.00
50384;BME280;36301;48.310;12.786;2023-08-06T04:07:43;95426.50;;;13.03;100.00
50384;BME280;36301;48.310;12.786;2023-08-06T04:10:10;95431.72;;;13.14;100.00
50384;BME280;36301;48.310;12.786;2023-08-06T04:12:36;95431.00;;;13.10;100.00
50384;BME280;36301;48.310;12.786;2023-08-06T04:15:06;95429.53;;;13.05;100.00
50384;BME280;36301;48.310;12.786;2023-08-06T04:17:32;95418.50;;;13.07;100.00
50384;BME280;36301;48.310;12.786;2023-08-06T04:19:59;95420.78;;;13.05;100.00
50384;BME280;36301;48.310;12.786;2023-08-06T04:22:26;95435.97;;;13.08;100.00
50384;BME280;36301;48.310;12.786;2023-08-06T04:24:53;95424.53;;;13.11;100.00
50384;BME280;36301;48.310;12.786;2023-08-06T04:27:19;95432.50;;;13.11;100.00
50384;BME280;36301;48.310;12.786;2023-08-06T04:29:46;95438.63;;;13.08;100.00
50384;BME280;36301;48.310;12.786;2023-08-06T04:32:13;95429.16;;;13.03;100.00
50384;BME280;36301;48.310;12.786;2023-08-06T04:34:39;95449.56;;;13.13;100.00
50384;BME280;36301;48.310;12.786;2023-08-06T04:37:06;95446.25;;;13.02;100.00
50384;BME280;36301;48.310;12.786;2023-08-06T04:39:33;95434.50;;;12.99;100.00
50384;BME280;36301;48.310;12.786;2023-08-06T04:41:59;95442.03;;;13.08;100.00
50384;BME280;36301;48.310;12.786;2023-08-06T04:44:26;95445.78;;;13.11;100.00
50384;BME280;36301;48.310;12.786;2023-08-06T04:46:52;95424.97;;;13.02;100.00
50384;BME280;36301;48.310;12.786;2023-08-06T04:49:22;95440.88;;;13.09;100.00
50384;BME280;36301;48.310;12.786;2023-08-06T04:51:49;95434.81;;;13.09;100.00
50384;BME280;36301;48.310;12.786;2023-08-06T04:54:15;95434.75;;;13.12;100.00
50384;BME280;36301;48.310;12.786;2023-08-06T04:56:42;95443.50;;;13.13;100.00
50384;BME280;36301;48.310;12.786;2023-08-06T04:59:09;95424.56;;;13.07;100.00
50384;BME280;36301;48.310;12.786;2023-08-06T05:01:35;95446.50;;;13.15;100.00
50384;BME280;36301;48.310;12.786;2023-08-06T05:04:02;95437.50;;;13.05;100.00
50384;BME280;36301;48.310;12.786;2023-08-06T05:06:29;95434.72;;;13.16;100.00
50384;BME280;36301;48.310;12.786;2023-08-06T05:08:55;95425.69;;;13.10;100.00
50384;BME280;36301;48.310;12.786;2023-08-06T05:11:22;95425.66;;;13.13;100.00
50384;BME280;36301;48.310;12.786;2023-08-06T05:13:48;95425.19;;;13.22;100.00
50384;BME280;36301;48.310;12.786;2023-08-06T05:16:15;95418.34;;;13.24;100.00
50384;BME280;36301;48.310;12.786;2023-08-06T05:18:41;95427.72;;;13.36;100.00
50384;BME280;36301;48.310;12.786;2023-08-06T05:21:08;95405.69;;;13.36;100.00
50384;BME280;36301;48.310;12.786;2023-08-06T05:23:35;95412.06;;;13.45;100.00
50384;BME280;36301;48.310;12.786;2023-08-06T05:26:01;95421.81;;;13.56;100.00
50384;BME280;36301;48.310;12.786;2023-08-06T05:32:16;95428.38;;;13.78;100.00
50384;BME280;36301;48.310;12.786;2023-08-06T05:34:42;95431.75;;;13.82;100.00
50384;BME280;36301;48.310;12.786;2023-08-06T05:37:09;95417.28;;;13.83;100.00
50384;BME280;36301;48.310;12.786;2023-08-06T05:39:35;95425.28;;;13.83;100.00
50384;BME280;36301;48.310;12.786;2023-08-06T05:42:02;95414.28;;;13.81;100.00
50384;BME280;36301;48.310;12.786;2023-08-06T05:44:30;95428.88;;;14.00;100.00
50384;BME280;36301;48.310;12.786;2023-08-06T05:46:56;95422.94;;;14.19;100.00
50384;BME280;36301;48.310;12.786;2023-08-06T05:49:23;95416.28;;;14.31;100.00
50384;BME280;36301;48.310;12.786;2023-08-06T05:51:49;95416.94;;;14.39;100.00
50384;BME280;36301;48.310;12.786;2023-08-06T05:57:43;95426.88;;;14.08;100.00
50384;BME280;36301;48.310;12.786;2023-08-06T06:00:10;95435.41;;;13.95;100.00
50384;BME280;36301;48.310;12.786;2023-08-06T06:02:36;95437.34;;;13.91;100.00
50384;BME280;36301;48.310;12.786;2023-08-06T06:05:03;95435.00;;;13.97;100.00
50384;BME280;36301;48.310;12.786;2023-08-06T06:07:30;95429.28;;;13.98;100.00
50384;BME280;36301;48.310;12.786;2023-08-06T06:09:56;95409.19;;;13.94;100.00
50384;BME280;36301;48.310;12.786;2023-08-06T06:12:23;95425.47;;;13.99;100.00
50384;BME280;36301;48.310;12.786;2023-08-06T06:14:50;95402.72;;;13.95;100.00
50384;BME280;36301;48.310;12.786;2023-08-06T06:17:17;95422.97;;;14.16;100.00
50384;BME280;36301;48.310;12.786;2023-08-06T06:19:43;95425.03;;;14.32;100.00
50384;BME280;36301;48.310;12.786;2023-08-06T06:22:10;95433.19;;;14.44;100.00
50384;BME280;36301;48.310;12.786;2023-08-06T06:24:36;95421.63;;;14.31;100.00
50384;BME280;36301;48.310;12.786;2023-08-06T06:27:03;95414.78;;;14.30;100.00
50384;BME280;36301;48.310;12.786;2023-08-06T06:29:30;95418.84;;;14.38;100.00
50384;BME280;36301;48.310;12.786;2023-08-06T06:31:57;95402.34;;;14.47;100.00
50384;BME280;36301;48.310;12.786;2023-08-06T06:34:23;95421.66;;;14.54;100.00
50384;BME280;36301;48.310;12.786;2023-08-06T06:36:50;95426.19;;;14.58;100.00
50384;BME280;36301;48.310;12.786;2023-08-06T06:39:17;95425.50;;;14.53;100.00
50384;BME280;36301;48.310;12.786;2023-08-06T06:41:44;95417.13;;;14.55;100.00
50384;BME280;36301;48.310;12.786;2023-08-06T06:44:10;95423.19;;;14.56;100.00
50384;BME280;36301;48.310;12.786;2023-08-06T06:46:37;95411.59;;;14.39;100.00
50384;BME280;36301;48.310;12.786;2023-08-06T06:49:03;95439.84;;;14.60;100.00
50384;BME280;36301;48.310;12.786;2023-08-06T06:51:30;95444.50;;;14.79;100.00
50384;BME280;36301;48.310;12.786;2023-08-06T06:53:58;95442.13;;;14.85;100.00
50384;BME280;36301;48.310;12.786;2023-08-06T06:56:25;95435.66;;;14.86;100.00
50384;BME280;36301;48.310;12.786;2023-08-06T06:58:51;95440.13;;;14.92;100.00
50384;BME280;36301;48.310;12.786;2023-08-06T07:01:18;95445.56;;;15.09;100.00
50384;BME280;36301;48.310;12.786;2023-08-06T07:03:44;95430.41;;;15.25;100.00
50384;BME280;36301;48.310;12.786;2023-08-06T07:06:11;95437.31;;;15.23;100.00
50384;BME280;36301;48.310;12.786;2023-08-06T07:08:39;95440.00;;;15.43;100.00
50384;BME280;36301;48.310;12.786;2023-08-06T07:11:06;95431.94;;;15.46;100.00
50384;BME280;36301;48.310;12.786;2023-08-06T07:13:36;95429.69;;;15.65;100.00
50384;BME280;36301;48.310;12.786;2023-08-06T07:16:03;95413.06;;;15.97;100.00
50384;BME280;36301;48.310;12.786;2023-08-06T07:18:30;95425.47;;;16.40;100.00
50384;BME280;36301;48.310;12.786;2023-08-06T07:20:56;95420.03;;;16.27;100.00
50384;BME280;36301;48.310;12.786;2023-08-06T07:23:25;95422.50;;;16.86;100.00
50384;BME280;36301;48.310;12.786;2023-08-06T07:25:52;95425.00;;;17.10;100.00
50384;BME280;36301;48.310;12.786;2023-08-06T07:28:18;95408.06;;;16.68;100.00
50384;BME280;36301;48.310;12.786;2023-08-06T07:30:45;95407.94;;;16.55;100.00
50384;BME280;36301;48.310;12.786;2023-08-06T07:33:12;95399.06;;;16.25;100.00
50384;BME280;36301;48.310;12.786;2023-08-06T07:35:39;95396.63;;;15.98;100.00
50384;BME280;36301;48.310;12.786;2023-08-06T07:38:06;95390.19;;;15.96;100.00
50384;BME280;36301;48.310;12.786;2023-08-06T07:40:35;95387.75;;;16.01;100.00
50384;BME280;36301;48.310;12.786;2023-08-06T07:43:03;95400.81;;;16.16;100.00
50384;BME280;36301;48.310;12.786;2023-08-06T07:45:36;95386.13;;;16.07;100.00
50384;BME280;36301;48.310;12.786;2023-08-06T07:48:03;95392.91;;;16.12;100.00
50384;BME280;36301;48.310;12.786;2023-08-06T07:50:31;95383.56;;;16.20;100.00
50384;BME280;36301;48.310;12.786;2023-08-06T07:52:57;95403.59;;;16.45;100.00
50384;BME280;36301;48.310;12.786;2023-08-06T07:55:25;95395.66;;;16.41;100.00
50384;BME280;36301;48.310;12.786;2023-08-06T07:57:51;95391.50;;;16.24;100.00
50384;BME280;36301;48.310;12.786;2023-08-06T08:00:18;95409.06;;;16.57;100.00
50384;BME280;36301;48.310;12.786;2023-08-06T08:02:45;95395.50;;;16.65;100.00
50384;BME280;36301;48.310;12.786;2023-08-06T08:05:13;95393.91;;;16.67;100.00
50384;BME280;36301;48.310;12.786;2023-08-06T08:07:39;95392.50;;;16.95;100.00
50384;BME280;36301;48.310;12.786;2023-08-06T08:10:06;95399.69;;;16.98;100.00
50384;BME280;36301;48.310;12.786;2023-08-06T08:12:33;95386.75;;;16.64;100.00
50384;BME280;36301;48.310;12.786;2023-08-06T08:14:59;95385.91;;;17.29;100.00
50384;BME280;36301;48.310;12.786;2023-08-06T08:17:26;95395.03;;;17.73;100.00
50384;BME280;36301;48.310;12.786;2023-08-06T08:19:52;95393.25;;;18.08;100.00
50384;BME280;36301;48.310;12.786;2023-08-06T08:22:19;95387.28;;;18.30;100.00
50384;BME280;36301;48.310;12.786;2023-08-06T08:24:45;95378.06;;;19.26;96.09
50384;BME280;36301;48.310;12.786;2023-08-06T08:27:12;95382.19;;;19.17;94.14
50384;BME280;36301;48.310;12.786;2023-08-06T08:29:39;95383.06;;;18.67;94.22
50384;BME280;36301;48.310;12.786;2023-08-06T08:32:05;95344.94;;;18.37;96.31
50384;BME280;36301;48.310;12.786;2023-08-06T08:34:32;95386.72;;;18.73;98.99
50384;BME280;36301;48.310;12.786;2023-08-06T08:36:59;95383.81;;;18.04;96.90
50384;BME280;36301;48.310;12.786;2023-08-06T08:39:25;95375.72;;;17.66;99.56
50384;BME280;36301;48.310;12.786;2023-08-06T08:41:52;95396.06;;;18.18;96.34
50384;BME280;36301;48.310;12.786;2023-08-06T08:44:19;95385.22;;;18.34;96.61
50384;BME280;36301;48.310;12.786;2023-08-06T08:46:47;95385.63;;;18.58;96.37
50384;BME280;36301;48.310;12.786;2023-08-06T08:49:14;95385.72;;;19.14;88.99
50384;BME280;36301;48.310;12.786;2023-08-06T08:51:41;95377.63;;;18.45;92.67
50384;BME280;36301;48.310;12.786;2023-08-06T08:54:10;95387.84;;;19.19;88.90
50384;BME280;36301;48.310;12.786;2023-08-06T08:56:38;95383.09;;;19.36;90.98
50384;BME280;36301;48.310;12.786;2023-08-06T08:59:05;95373.00;;;19.93;89.83
50384;BME280;36301;48.310;12.786;2023-08-06T09:01:32;95370.41;;;19.37;84.77
50384;BME280;36301;48.310;12.786;2023-08-06T09:03:59;95363.09;;;18.81;87.39
50384;BME280;36301;48.310;12.786;2023-08-06T09:06:27;95368.50;;;18.68;87.45
50384;BME280;36301;48.310;12.786;2023-08-06T09:09:08;95365.56;;;18.62;88.04
50384;BME280;36301;48.310;12.786;2023-08-06T09:11:39;95379.13;;;18.46;89.66
50384;BME280;36301;48.310;12.786;2023-08-06T09:14:09;95356.59;;;19.04;86.92
50384;BME280;36301;48.310;12.786;2023-08-06T09:16:35;95350.63;;;18.87;83.08
50384;BME280;36301;48.310;12.786;2023-08-06T09:19:09;95340.16;;;18.54;86.44
50384;BME280;36301;48.310;12.786;2023-08-06T09:21:37;95353.56;;;18.54;85.16
50384;BME280;36301;48.310;12.786;2023-08-06T09:24:09;95353.03;;;18.59;85.76
50384;BME280;36301;48.310;12.786;2023-08-06T09:26:37;95354.44;;;18.77;86.29
50384;BME280;36301;48.310;12.786;2023-08-06T09:29:05;95352.56;;;19.21;85.05
50384;BME280;36301;48.310;12.786;2023-08-06T09:34:20;95359.72;;;19.02;82.61
50384;BME280;36301;48.310;12.786;2023-08-06T09:36:51;95360.94;;;19.10;83.20
50384;BME280;36301;48.310;12.786;2023-08-06T09:39:19;95360.03;;;19.48;81.67
50384;BME280;36301;48.310;12.786;2023-08-06T09:41:47;95343.00;;;20.44;75.76
50384;BME280;36301;48.310;12.786;2023-08-06T09:44:21;95342.00;;;20.11;72.41
50384;BME280;36301;48.310;12.786;2023-08-06T09:46:56;95347.25;;;20.55;70.22
50384;BME280;36301;48.310;12.786;2023-08-06T09:51:59;95345.31;;;20.64;69.22
50384;BME280;36301;48.310;12.786;2023-08-06T09:54:27;95330.44;;;19.39;74.21
50384;BME280;36301;48.310;12.786;2023-08-06T09:56:55;95343.19;;;19.69;77.00
50384;BME280;36301;48.310;12.786;2023-08-06T09:59:25;95333.53;;;19.81;71.29
50384;BME280;36301;48.310;12.786;2023-08-06T10:01:54;95346.13;;;19.62;72.73
50384;BME280;36301;48.310;12.786;2023-08-06T10:04:24;95344.50;;;19.65;75.46
50384;BME280;36301;48.310;12.786;2023-08-06T10:06:59;95345.78;;;20.72;69.86
50384;BME280;36301;48.310;12.786;2023-08-06T10:09:25;95344.91;;;20.84;70.62
50384;BME280;36301;48.310;12.786;2023-08-06T10:11:52;95321.78;;;20.37;70.71
50384;BME280;36301;48.310;12.786;2023-08-06T10:14:32;95336.56;;;20.42;69.88
50384;BME280;36301;48.310;12.786;2023-08-06T10:17:00;95329.50;;;20.85;68.17
50384;BME280;36301;48.310;12.786;2023-08-06T10:19:27;95327.25;;;21.11;70.89
50384;BME280;36301;48.310;12.786;2023-08-06T10:24:58;95339.81;;;20.18;68.10
50384;BME280;36301;48.310;12.786;2023-08-06T10:27:34;95338.75;;;20.16;70.53
50384;BME280;36301;48.310;12.786;2023-08-06T10:30:20;95340.19;;;19.99;69.67
50384;BME280;36301;48.310;12.786;2023-08-06T10:32:48;95329.41;;;19.36;72.93
50384;BME280;36301;48.310;12.786;2023-08-06T10:35:43;95334.34;;;19.16;74.65
50384;BME280;36301;48.310;12.786;2023-08-06T10:38:20;95334.25;;;19.29;77.95
50384;BME280;36301;48.310;12.786;2023-08-06T10:45:58;95353.66;;;17.61;83.17
50384;BME280;36301;48.310;12.786;2023-08-06T10:48:35;95346.91;;;17.15;87.74
50384;BME280;36301;48.310;12.786;2023-08-06T10:51:03;95354.34;;;17.24;88.15
50384;BME280;36301;48.310;12.786;2023-08-06T10:53:31;95365.44;;;16.77;91.22
50384;BME280;36301;48.310;12.786;2023-08-06T10:56:13;95365.88;;;17.21;93.34
50384;BME280;36301;48.310;12.786;2023-08-06T10:58:41;95360.91;;;18.15;89.56
50384;BME280;36301;48.310;12.786;2023-08-06T11:01:08;95359.06;;;18.51;85.38
50384;BME280;36301;48.310;12.786;2023-08-06T11:03:36;95366.91;;;18.20;89.69
50384;BME280;36301;48.310;12.786;2023-08-06T11:06:03;95379.00;;;18.24;87.09
50384;BME280;36301;48.310;12.786;2023-08-06T11:08:34;95370.66;;;18.09;85.24
50384;BME280;36301;48.310;12.786;2023-08-06T11:11:11;95381.03;;;17.82;84.75
50384;BME280;36301;48.310;12.786;2023-08-06T11:13:47;95390.75;;;17.34;85.85
50384;BME280;36301;48.310;12.786;2023-08-06T11:16:23;95385.06;;;17.32;85.86
50384;BME280;36301;48.310;12.786;2023-08-06T11:18:53;95382.91;;;17.27;91.28
50384;BME280;36301;48.310;12.786;2023-08-06T11:21:21;95399.38;;;16.80;99.25
50384;BME280;36301;48.310;12.786;2023-08-06T11:23:48;95407.34;;;16.31;98.82
50384;BME280;36301;48.310;12.786;2023-08-06T11:26:19;95409.44;;;16.23;100.00
50384;BME280;36301;48.310;12.786;2023-08-06T11:28:46;95401.69;;;16.61;100.00
50384;BME280;36301;48.310;12.786;2023-08-06T11:31:31;95395.88;;;16.83;100.00
50384;BME280;36301;48.310;12.786;2023-08-06T11:33:58;95385.22;;;16.96;97.36
50384;BME280;36301;48.310;12.786;2023-08-06T11:36:31;95395.97;;;17.67;95.62
50384;BME280;36301;48.310;12.786;2023-08-06T11:39:02;95393.91;;;18.12;91.49
50384;BME280;36301;48.310;12.786;2023-08-06T11:41:29;95368.53;;;17.50;89.85
50384;BME280;36301;48.310;12.786;2023-08-06T11:43:57;95397.44;;;17.55;89.02
50384;BME280;36301;48.310;12.786;2023-08-06T11:46:24;95398.97;;;17.69;90.72
50384;BME280;36301;48.310;12.786;2023-08-06T11:48:55;95393.06;;;17.61;91.71
50384;BME280;36301;48.310;12.786;2023-08-06T11:51:23;95388.75;;;17.51;90.36
50384;BME280;36301;48.310;12.786;2023-08-06T11:53:57;95395.84;;;17.57;91.19
50384;BME280;36301;48.310;12.786;2023-08-06T11:56:25;95395.50;;;17.14;91.73
50384;BME280;36301;48.310;12.786;2023-08-06T11:58:54;95398.78;;;17.18;92.04
50384;BME280;36301;48.310;12.786;2023-08-06T12:01:21;95386.84;;;17.51;93.24
50384;BME280;36301;48.310;12.786;2023-08-06T12:03:47;95396.72;;;17.38;93.21
50384;BME280;36301;48.310;12.786;2023-08-06T12:06:14;95383.59;;;17.15;90.79
50384;BME280;36301;48.310;12.786;2023-08-06T12:08:41;95381.72;;;17.28;90.81
50384;BME280;36301;48.310;12.786;2023-08-06T12:11:08;95392.75;;;17.30;89.89
50384;BME280;36301;48.310;12.786;2023-08-06T12:13:35;95392.13;;;17.38;88.14
50384;BME280;36301;48.310;12.786;2023-08-06T12:16:01;95378.63;;;17.29;89.68
50384;BME280;36301;48.310;12.786;2023-08-06T12:18:28;95371.94;;;16.92;91.85
50384;BME280;36301;48.310;12.786;2023-08-06T12:20:55;95370.88;;;16.57;90.87
50384;BME280;36301;48.310;12.786;2023-08-06T12:23:21;95385.00;;;16.90;94.46
50384;BME280;36301;48.310;12.786;2023-08-06T12:25:48;95385.50;;;16.85;87.69
50384;BME280;36301;48.310;12.786;2023-08-06T12:28:16;95385.13;;;17.28;88.23
50384;BME280;36301;48.310;12.786;2023-08-06T12:30:42;95384.34;;;17.44;85.75
50384;BME280;36301;48.310;12.786;2023-08-06T12:33:10;95386.63;;;17.58;83.81
50384;BME280;36301;48.310;12.786;2023-08-06T12:35:37;95386.50;;;17.49;85.68
50384;BME280;36301;48.310;12.786;2023-08-06T12:38:04;95389.88;;;17.08;87.12
50384;BME280;36301;48.310;12.786;2023-08-06T12:40:31;95399.44;;;16.93;87.44
50384;BME280;36301;48.310;12.786;2023-08-06T12:43:03;95404.22;;;17.30;88.03
50384;BME280;36301;48.310;12.786;2023-08-06T12:45:30;95383.25;;;17.29;87.65
50384;BME280;36301;48.310;12.786;2023-08-06T12:47:57;95387.41;;;17.59;85.35
50384;BME280;36301;48.310;12.786;2023-08-06T12:50:23;95405.97;;;17.79;85.78
50384;BME280;36301;48.310;12.786;2023-08-06T12:52:50;95397.25;;;17.62;86.18
50384;BME280;36301;48.310;12.786;2023-08-06T12:55:17;95397.31;;;17.17;83.66
50384;BME280;36301;48.310;12.786;2023-08-06T12:57:43;95409.03;;;17.06;84.97
50384;BME280;36301;48.310;12.786;2023-08-06T13:00:27;95419.16;;;16.99;87.63
50384;BME280;36301;48.310;12.786;2023-08-06T13:02:54;95417.91;;;16.87;90.29
50384;BME280;36301;48.310;12.786;2023-08-06T13:05:21;95412.81;;;16.76;90.62
50384;BME280;36301;48.310;12.786;2023-08-06T13:07:47;95426.44;;;17.27;90.93
50384;BME280;36301;48.310;12.786;2023-08-06T13:10:15;95408.88;;;16.97;88.27
50384;BME280;36301;48.310;12.786;2023-08-06T13:12:41;95415.34;;;17.29;86.81
50384;BME280;36301;48.310;12.786;2023-08-06T13:15:08;95397.75;;;17.57;86.23
50384;BME280;36301;48.310;12.786;2023-08-06T13:17:36;95401.03;;;16.90;85.33
50384;BME280;36301;48.310;12.786;2023-08-06T13:20:03;95420.94;;;16.89;86.13
50384;BME280;36301;48.310;12.786;2023-08-06T13:22:29;95410.84;;;17.38;83.89
50384;BME280;36301;48.310;12.786;2023-08-06T13:24:56;95417.25;;;17.28;84.67
50384;BME280;36301;48.310;12.786;2023-08-06T13:27:22;95419.63;;;17.68;81.37
50384;BME280;36301;48.310;12.786;2023-08-06T13:29:49;95424.34;;;17.64;82.71
50384;BME280;36301;48.310;12.786;2023-08-06T13:32:16;95422.44;;;17.48;81.92
50384;BME280;36301;48.310;12.786;2023-08-06T13:34:42;95416.59;;;17.53;84.29
50384;BME280;36301;48.310;12.786;2023-08-06T13:37:09;95417.00;;;17.39;84.38
50384;BME280;36301;48.310;12.786;2023-08-06T13:39:37;95410.22;;;16.89;83.10
50384;BME280;36301;48.310;12.786;2023-08-06T13:42:04;95425.09;;;16.90;84.05
50384;BME280;36301;48.310;12.786;2023-08-06T13:44:30;95420.16;;;17.05;83.98
50384;BME280;36301;48.310;12.786;2023-08-06T13:47:01;95417.16;;;16.86;85.44
50384;BME280;36301;48.310;12.786;2023-08-06T13:49:28;95440.28;;;16.77;84.77
50384;BME280;36301;48.310;12.786;2023-08-06T13:51:55;95415.78;;;16.62;84.75
50384;BME280;36301;48.310;12.786;2023-08-06T13:54:30;95434.56;;;16.42;84.13
50384;BME280;36301;48.310;12.786;2023-08-06T13:56:56;95458.06;;;16.15;89.72
50384;BME280;36301;48.310;12.786;2023-08-06T13:59:23;95445.09;;;15.97;89.43
50384;BME280;36301;48.310;12.786;2023-08-06T14:01:50;95462.94;;;16.36;89.78
50384;BME280;36301;48.310;12.786;2023-08-06T14:04:21;95458.41;;;16.53;89.36
50384;BME280;36301;48.310;12.786;2023-08-06T14:06:48;95465.50;;;16.59;88.45
50384;BME280;36301;48.310;12.786;2023-08-06T14:09:15;95464.31;;;16.60;92.38
50384;BME280;36301;48.310;12.786;2023-08-06T14:11:45;95471.38;;;16.87;92.14
50384;BME280;36301;48.310;12.786;2023-08-06T14:14:11;95468.56;;;16.78;90.41
50384;BME280;36301;48.310;12.786;2023-08-06T14:16:38;95474.88;;;17.00;90.29
50384;BME280;36301;48.310;12.786;2023-08-06T14:19:04;95469.19;;;17.15;90.60
50384;BME280;36301;48.310;12.786;2023-08-06T14:21:31;95484.63;;;17.23;88.57
50384;BME280;36301;48.310;12.786;2023-08-06T14:23:58;95467.38;;;16.79;89.48
50384;BME280;36301;48.310;12.786;2023-08-06T14:26:24;95462.00;;;16.63;89.34
50384;BME280;36301;48.310;12.786;2023-08-06T14:28:51;95474.72;;;16.75;90.70
50384;BME280;36301;48.310;12.786;2023-08-06T14:31:20;95482.41;;;17.05;90.95
50384;BME280;36301;48.310;12.786;2023-08-06T14:33:47;95476.88;;;17.12;88.10
50384;BME280;36301;48.310;12.786;2023-08-06T14:36:14;95472.78;;;17.24;88.08
50384;BME280;36301;48.310;12.786;2023-08-06T14:38:40;95478.03;;;17.28;88.59
50384;BME280;36301;48.310;12.786;2023-08-06T14:41:24;95487.38;;;16.71;88.16
50384;BME280;36301;48.310;12.786;2023-08-06T14:43:51;95492.19;;;16.43;91.07
50384;BME280;36301;48.310;12.786;2023-08-06T14:46:18;95507.16;;;16.01;94.02
50384;BME280;36301;48.310;12.786;2023-08-06T14:48:44;95525.88;;;15.57;100.00
50384;BME280;36301;48.310;12.786;2023-08-06T14:51:11;95512.81;;;15.40;100.00
50384;BME280;36301;48.310;12.786;2023-08-06T14:53:38;95497.56;;;15.40;100.00
50384;BME280;36301;48.310;12.786;2023-08-06T14:56:05;95499.03;;;15.45;100.00
50384;BME280;36301;48.310;12.786;2023-08-06T14:58:32;95481.72;;;15.33;100.00
50384;BME280;36301;48.310;12.786;2023-08-06T15:00:59;95504.38;;;15.68;98.90
50384;BME280;36301;48.310;12.786;2023-08-06T15:03:25;95518.41;;;15.72;97.49
50384;BME280;36301;48.310;12.786;2023-08-06T15:05:52;95519.44;;;15.55;97.91
50384;BME280;36301;48.310;12.786;2023-08-06T15:08:18;95522.97;;;15.48;100.00
50384;BME280;36301;48.310;12.786;2023-08-06T15:10:52;95522.41;;;15.14;100.00
50384;BME280;36301;48.310;12.786;2023-08-06T15:13:19;95528.78;;;15.20;100.00
50384;BME280;36301;48.310;12.786;2023-08-06T15:15:46;95526.84;;;15.20;100.00
50384;BME280;36301;48.310;12.786;2023-08-06T15:18:13;95532.19;;;14.97;100.00
50384;BME280;36301;48.310;12.786;2023-08-06T15:20:40;95546.59;;;14.99;100.00
50384;BME280;36301;48.310;12.786;2023-08-06T15:23:06;95545.78;;;15.06;100.00
50384;BME280;36301;48.310;12.786;2023-08-06T15:25:33;95533.56;;;15.05;100.00
50384;BME280;36301;48.310;12.786;2023-08-06T15:27:59;95538.69;;;14.96;100.00
50384;BME280;36301;48.310;12.786;2023-08-06T15:30:26;95549.25;;;14.76;100.00
50384;BME280;36301;48.310;12.786;2023-08-06T15:32:53;95558.09;;;14.69;100.00
50384;BME280;36301;48.310;12.786;2023-08-06T15:35:20;95550.53;;;14.34;100.00
50384;BME280;36301;48.310;12.786;2023-08-06T15:37:46;95585.13;;;14.34;100.00
50384;BME280;36301;48.310;12.786;2023-08-06T15:40:13;95563.34;;;14.12;100.00
50384;BME280;36301;48.310;12.786;2023-08-06T15:42:40;95572.78;;;13.82;100.00
50384;BME280;36301;48.310;12.786;2023-08-06T15:45:07;95578.31;;;13.61;100.00
50384;BME280;36301;48.310;12.786;2023-08-06T15:47:33;95591.63;;;13.57;100.00
50384;BME280;36301;48.310;12.786;2023-08-06T15:50:07;95588.31;;;13.42;100.00
50384;BME280;36301;48.310;12.786;2023-08-06T15:52:35;95593.78;;;13.28;100.00
50384;BME280;36301;48.310;12.786;2023-08-06T15:55:02;95600.50;;;13.43;100.00
50384;BME280;36301;48.310;12.786;2023-08-06T15:57:32;95581.41;;;13.52;100.00
50384;BME280;36301;48.310;12.786;2023-08-06T15:59:59;95574.31;;;13.38;100.00
50384;BME280;36301;48.310;12.786;2023-08-06T16:02:27;95585.53;;;13.60;100.00
50384;BME280;36301;48.310;12.786;2023-08-06T16:04:55;95599.97;;;13.59;100.00
50384;BME280;36301;48.310;12.786;2023-08-06T16:07:22;95588.31;;;13.42;100.00
50384;BME280;36301;48.310;12.786;2023-08-06T16:09:55;95602.00;;;13.44;100.00